Time;durP1;ratioP1;P1;durP2;ratioP2;P2;SDS_P1;SDS_P2;PMS_P1;PMS_P2;Temp;Humidity;BMP_temperature;BMP_pressure;BME280_temperature;BME280_humidity;BME280_pressure;Samples;Min_cycle;Max_cycle;Signal;HPM_P1;HPM_P2
2023/07/13 00:01:56;;;;;;;5.73;5.00;;;24.60;78.20;;;25.24;53.43;95221.63;4955773;28;20452;-64
2023/07/13 00:04:25;;;;;;;7.60;4.67;;;24.60;78.20;;;25.20;53.67;95213.16;4960725;28;20467;-59
2023/07/13 00:06:53;;;;;;;5.70;4.73;;;24.50;78.00;;;25.17;53.50;95219.00;4960607;28;20558;-59
2023/07/13 00:09:20;;;;;;;5.77;5.00;;;24.50;78.00;;;25.14;53.03;95214.06;4957008;28;20471;-60
2023/07/13 00:11:53;;;;;;;6.30;4.90;;;24.50;78.00;;;25.09;53.30;95210.41;4956598;28;20606;-58
2023/07/13 00:14:20;;;;;;;5.97;4.27;;;24.40;77.90;;;25.04;53.00;95214.56;4960262;28;20497;-67
2023/07/13 00:16:49;;;;;;;6.60;5.33;;;24.40;77.60;;;25.00;52.58;95217.94;4963615;28;20451;-60
2023/07/13 00:19:16;;;;;;;5.43;4.73;;;24.40;77.80;;;24.96;53.00;95216.75;4964505;28;21065;-58
2023/07/13 00:21:44;;;;;;;7.20;4.27;;;24.30;77.80;;;24.92;53.26;95207.47;4960983;28;20458;-59
2023/07/13 00:24:22;;;;;;;5.87;4.53;;;24.30;77.90;;;24.85;52.85;95200.28;4964503;28;20882;-65
2023/07/13 00:26:49;;;;;;;6.70;4.90;;;24.20;77.70;;;24.81;52.69;95196.34;4963960;28;20918;-59
2023/07/13 00:29:16;;;;;;;5.27;4.43;;;24.20;77.80;;;24.78;53.58;95196.00;4961830;28;20447;-65
2023/07/13 00:31:44;;;;;;;7.33;5.80;;;24.10;77.70;;;24.73;52.91;95195.84;4957137;28;20520;-64
2023/07/13 00:34:13;;;;;;;6.17;5.60;;;24.10;78.10;;;24.67;53.07;95201.03;4964090;28;20474;-65
2023/07/13 00:36:40;;;;;;;6.77;4.90;;;24.10;78.30;;;24.62;53.28;95197.38;4964093;28;20447;-65
2023/07/13 00:39:07;;;;;;;9.63;5.30;;;24.00;78.60;;;24.60;53.43;95200.28;4964160;28;20520;-59
2023/07/13 00:41:36;;;;;;;8.13;6.10;;;24.00;79.10;;;24.56;54.23;95196.34;4963746;28;20467;-60
2023/07/13 00:44:04;;;;;;;5.50;5.07;;;23.90;79.30;;;24.54;54.66;95198.44;4960212;28;20538;-65
2023/07/13 00:46:33;;;;;;;9.03;4.90;;;23.90;79.90;;;24.50;54.76;95195.34;4958908;28;20499;-65
2023/07/13 00:49:03;;;;;;;9.47;5.40;;;23.90;80.30;;;24.47;54.67;95197.66;4963057;28;20455;-65
2023/07/13 00:51:39;;;;;;;6.70;5.33;;;23.80;80.70;;;24.44;55.07;95192.72;4963831;28;20453;-65
2023/07/13 00:54:10;;;;;;;9.70;6.10;;;23.80;81.10;;;24.44;55.06;95192.72;4984395;28;20468;-65
2023/07/13 00:56:37;;;;;;;8.57;6.10;;;23.80;81.70;;;24.42;54.99;95194.81;4968873;28;20955;-58
2023/07/13 00:59:05;;;;;;;8.83;6.10;;;23.80;81.80;;;24.40;55.56;95186.13;4981925;28;20470;-63
2023/07/13 01:01:32;;;;;;;6.20;5.60;;;23.80;82.10;;;24.39;56.20;95185.31;4977788;28;20528;-65
2023/07/13 01:04:02;;;;;;;7.70;6.40;;;23.80;82.50;;;24.37;55.76;95182.03;4974492;28;20459;-65
2023/07/13 01:06:30;;;;;;;13.40;6.33;;;23.70;82.80;;;24.34;56.53;95188.66;4953881;28;20479;-65
2023/07/13 01:08:59;;;;;;;7.57;6.80;;;23.70;83.10;;;24.32;56.18;95196.13;4958887;28;20520;-59
2023/07/13 01:11:26;;;;;;;10.97;6.50;;;23.70;83.10;;;24.29;56.13;95199.25;4957218;28;20563;-58
2023/07/13 01:13:53;;;;;;;7.53;6.33;;;23.70;83.70;;;24.28;57.15;95194.09;4966272;28;20450;-65
2023/07/13 01:16:26;;;;;;;9.33;6.10;;;23.70;83.80;;;24.26;56.56;95191.63;4963188;28;20474;-65
2023/07/13 01:18:54;;;;;;;6.67;5.40;;;23.70;84.20;;;24.23;57.11;95181.28;4966775;28;20485;-65
2023/07/13 01:21:23;;;;;;;8.10;6.93;;;23.60;84.10;;;24.20;57.12;95187.09;4963990;28;20525;-65
2023/07/13 01:23:50;;;;;;;9.17;6.40;;;23.60;84.50;;;24.16;57.33;95181.31;4964939;28;20998;-58
2023/07/13 01:26:17;;;;;;;10.13;6.17;;;23.60;84.80;;;24.13;56.75;95180.94;4966904;28;20467;-67
2023/07/13 01:28:44;;;;;;;8.90;6.70;;;23.50;84.80;;;24.12;57.76;95173.91;4966688;28;20516;-65
2023/07/13 01:31:12;;;;;;;7.53;5.87;;;23.50;85.20;;;24.11;57.31;95183.84;4963324;28;21076;-64
2023/07/13 01:33:40;;;;;;;7.57;6.67;;;23.50;85.60;;;24.10;58.12;95179.50;4966892;28;20848;-58
2023/07/13 01:36:08;;;;;;;6.60;5.80;;;23.50;86.30;;;24.10;57.54;95186.75;4966500;28;20995;-58
2023/07/13 01:38:37;;;;;;;13.93;5.80;;;23.50;86.40;;;24.09;57.64;95177.03;4962539;28;20458;-59
2023/07/13 01:41:04;;;;;;;15.03;5.80;;;23.50;86.50;;;24.08;58.15;95180.78;4966230;28;20532;-58
2023/07/13 01:43:32;;;;;;;10.23;6.40;;;23.50;86.70;;;24.05;58.29;95173.97;4963553;28;20486;-59
2023/07/13 01:45:59;;;;;;;11.00;5.60;;;23.50;87.00;;;24.05;58.18;95173.97;4965914;28;21031;-64
2023/07/13 01:48:27;;;;;;;11.47;6.03;;;23.40;87.00;;;24.06;57.98;95174.78;4965506;28;21041;-59
2023/07/13 01:50:54;;;;;;;11.93;6.37;;;23.40;87.10;;;24.06;58.33;95180.16;4965943;28;20475;-64
2023/07/13 01:53:21;;;;;;;11.50;5.30;;;23.40;87.40;;;24.03;58.26;95175.22;4965685;28;20447;-58
2023/07/13 01:55:50;;;;;;;11.60;6.63;;;23.40;87.90;;;24.02;57.98;95178.94;4960103;28;20559;-60
2023/07/13 01:58:17;;;;;;;12.90;7.00;;;23.40;87.50;;;23.98;58.30;95174.00;4961488;28;20447;-58
2023/07/13 02:00:44;;;;;;;15.00;6.57;;;23.40;87.50;;;23.95;58.24;95179.81;4965712;28;20566;-59
2023/07/13 02:03:14;;;;;;;11.00;7.13;;;23.40;88.20;;;23.93;58.96;95179.19;4965921;28;20486;-65
2023/07/13 02:05:41;;;;;;;9.57;5.63;;;23.40;88.30;;;23.92;59.20;95182.94;4966124;28;20872;-64
2023/07/13 02:08:08;;;;;;;6.70;5.90;;;23.30;88.70;;;23.90;58.66;95187.69;4965599;28;20507;-65
2023/07/13 02:10:36;;;;;;;9.70;6.10;;;23.30;88.20;;;23.86;58.73;95191.84;4965869;28;20479;-65
2023/07/13 02:13:06;;;;;;;5.93;5.40;;;23.30;88.60;;;23.82;58.79;95190.59;4962316;28;20985;-65
2023/07/13 02:15:33;;;;;;;8.00;6.27;;;23.20;88.00;;;23.78;59.10;95186.69;4963188;28;20464;-59
2023/07/13 02:18:00;;;;;;;13.90;6.37;;;23.20;88.30;;;23.76;58.67;95186.88;4966079;28;20455;-60
2023/07/13 02:20:28;;;;;;;13.63;6.57;;;23.20;88.60;;;23.74;58.31;95188.16;4965777;28;20483;-59
2023/07/13 02:22:55;;;;;;;13.63;6.50;;;23.20;88.20;;;23.67;58.22;95193.56;4965282;28;20459;-57
2023/07/13 02:25:22;;;;;;;8.73;6.13;;;23.10;87.90;;;23.60;58.65;95190.91;4965195;28;20488;-66
2023/07/13 02:27:50;;;;;;;6.47;5.30;;;23.00;88.20;;;23.56;59.01;95197.75;4965178;28;20870;-59
2023/07/13 02:30:19;;;;;;;8.60;5.90;;;23.00;88.50;;;23.55;58.69;95189.91;4966746;28;20555;-65
2023/07/13 02:32:46;;;;;;;5.90;5.30;;;23.00;88.70;;;23.54;58.73;95188.25;4964098;28;20482;-66
2023/07/13 02:35:13;;;;;;;8.47;5.67;;;22.90;88.70;;;23.51;58.36;95194.88;4968041;28;20471;-58
2023/07/13 02:37:40;;;;;;;17.90;6.17;;;22.90;88.70;;;23.49;58.46;95194.25;4965745;28;20455;-59
2023/07/13 02:40:10;;;;;;;16.60;6.57;;;22.90;88.70;;;23.44;58.12;95205.63;4965601;28;20968;-59
2023/07/13 02:42:37;;;;;;;10.83;6.57;;;22.90;89.10;;;23.38;58.34;95200.31;4965193;28;20470;-60
2023/07/13 02:45:05;;;;;;;11.73;5.77;;;22.80;88.30;;;23.31;58.58;95204.84;4965462;28;20467;-59
2023/07/13 02:47:35;;;;;;;6.03;5.43;;;22.70;89.00;;;23.28;59.48;95206.09;4959691;28;20487;-59
2023/07/13 02:50:02;;;;;;;6.90;5.70;;;22.70;89.10;;;23.28;59.01;95208.78;4961475;28;20482;-59
2023/07/13 02:52:29;;;;;;;9.23;5.90;;;22.70;89.70;;;23.29;59.06;95204.25;4961021;28;20462;-60
2023/07/13 02:54:57;;;;;;;8.97;5.60;;;22.70;90.00;;;23.29;59.09;95202.38;4957301;28;20488;-64
2023/07/13 02:57:24;;;;;;;7.03;6.40;;;22.70;90.20;;;23.29;59.60;95199.69;4970181;28;20570;-66
2023/07/13 02:59:51;;;;;;;8.93;5.73;;;22.70;90.20;;;23.29;59.54;95201.56;4963193;28;20910;-65
2023/07/13 03:02:19;;;;;;;15.13;7.40;;;22.70;90.30;;;23.30;59.69;95208.56;4958136;28;20484;-66
2023/07/13 03:04:47;;;;;;;8.30;6.37;;;22.70;90.40;;;23.30;59.47;95214.78;4957294;28;20480;-66
2023/07/13 03:07:15;;;;;;;7.80;6.00;;;22.70;90.40;;;23.30;59.59;95214.78;4964395;28;20491;-65
2023/07/13 03:09:42;;;;;;;8.60;5.90;;;22.70;90.50;;;23.31;60.27;95223.66;4967025;28;20484;-58
2023/07/13 03:12:10;;;;;;;7.67;6.20;;;22.70;90.70;;;23.31;59.80;95219.09;4975913;28;20463;-60
2023/07/13 03:14:37;;;;;;;12.47;7.37;;;22.70;90.80;;;23.33;59.96;95213.50;4957908;28;20541;-59
2023/07/13 03:17:05;;;;;;;7.43;5.97;;;22.70;91.00;;;23.32;60.11;95210.00;4964227;28;20451;-65
2023/07/13 03:19:32;;;;;;;11.93;6.63;;;22.70;91.00;;;23.32;60.76;95212.69;4964564;28;20491;-66
2023/07/13 03:22:01;;;;;;;11.90;7.10;;;22.70;91.10;;;23.31;60.06;95207.53;4962010;28;20471;-59
2023/07/13 03:24:28;;;;;;;9.73;6.90;;;22.70;91.20;;;23.32;60.94;95214.56;4963580;28;20495;-59
2023/07/13 03:26:55;;;;;;;14.60;6.77;;;22.70;91.40;;;23.31;60.93;95215.59;4963999;28;20462;-59
2023/07/13 03:29:23;;;;;;;28.17;6.57;;;22.70;91.50;;;23.30;60.24;95217.47;4960471;28;20528;-59
2023/07/13 03:31:50;;;;;;;15.70;6.50;;;22.70;91.50;;;23.32;60.44;95217.25;4964948;28;20878;-58
2023/07/13 03:34:17;;;;;;;17.97;6.93;;;22.70;91.50;;;23.33;60.43;95224.25;4960789;28;21071;-64
2023/07/13 03:36:44;;;;;;;16.00;6.77;;;22.70;92.00;;;23.35;60.55;95225.69;4962813;28;20944;-61
2023/07/13 03:39:13;;;;;;;10.77;6.70;;;22.70;91.70;;;23.36;60.77;95222.00;4989807;28;20470;-58
2023/07/13 03:41:40;;;;;;;12.63;6.10;;;22.80;91.80;;;23.37;60.76;95223.63;4978611;28;20460;-64
2023/07/13 03:44:08;;;;;;;15.37;7.30;;;22.80;91.80;;;23.39;60.32;95223.41;4968066;28;20563;-59
2023/07/13 03:46:35;;;;;;;12.57;7.80;;;22.80;91.80;;;23.39;60.29;95229.63;4992953;28;20467;-60
2023/07/13 03:49:02;;;;;;;16.83;8.20;;;22.80;91.90;;;23.40;61.45;95219.69;4961537;28;20612;-59
2023/07/13 03:51:30;;;;;;;14.43;6.87;;;22.80;92.40;;;23.41;60.55;95224.84;4963736;28;20992;-60
2023/07/13 03:53:57;;;;;;;10.37;7.40;;;22.80;92.10;;;23.43;61.01;95224.63;4973376;28;20459;-66
2023/07/13 03:56:26;;;;;;;12.83;7.67;;;22.80;92.00;;;23.44;61.03;95219.06;4979108;28;20496;-66
2023/07/13 03:58:54;;;;;;;15.60;7.50;;;22.90;92.10;;;23.46;60.51;95221.53;4963028;28;20949;-64
2023/07/13 04:01:22;;;;;;;13.60;8.40;;;22.90;92.20;;;;;;4962677;28;21029;-64
2023/07/13 04:03:49;;;;;;;10.27;7.33;;;22.90;92.30;;;23.48;60.89;95215.94;4962779;28;20455;-64
2023/07/13 04:06:21;;;;;;;13.10;7.50;;;22.90;92.40;;;23.49;60.57;95223.78;4980843;28;20794;-66
2023/07/13 04:08:50;;;;;;;12.13;7.40;;;22.90;92.40;;;23.53;60.62;95208.06;4962553;28;20570;-59
2023/07/13 04:11:17;;;;;;;15.20;6.53;;;22.90;92.40;;;23.54;61.32;95213.22;4963573;28;20558;-58
2023/07/13 04:13:46;;;;;;;15.13;8.10;;;22.90;92.50;;;23.55;61.32;95206.84;4963989;28;20917;-61
2023/07/13 04:16:14;;;;;;;16.87;8.27;;;23.00;92.50;;;23.59;61.33;95210.75;4965919;28;20991;-59
2023/07/13 04:18:41;;;;;;;13.13;9.80;;;23.00;92.50;;;23.61;60.81;95214.03;4974785;28;20463;-60
2023/07/13 04:21:09;;;;;;;21.80;7.80;;;23.00;92.50;;;23.63;60.73;95230.75;4963455;28;20561;-65
2023/07/13 04:23:36;;;;;;;12.87;8.40;;;23.00;92.50;;;23.69;61.03;95225.59;4972927;28;20554;-60
2023/07/13 04:26:04;;;;;;;17.40;9.23;;;23.10;92.80;;;23.76;61.77;95229.06;4966992;28;20489;-58
2023/07/13 04:28:31;;;;;;;16.57;8.83;;;23.10;93.10;;;23.84;60.96;95231.53;4968535;28;20868;-59
2023/07/13 04:31:00;;;;;;;26.53;9.37;;;23.20;93.00;;;23.91;61.16;95231.50;4962815;28;20540;-59
2023/07/13 04:33:27;;;;;;;20.73;9.47;;;23.30;93.00;;;23.99;60.54;95234.75;4967230;28;20988;-58
2023/07/13 04:35:56;;;;;;;19.67;8.43;;;23.40;93.00;;;24.08;61.04;95235.34;4963479;28;21059;-59
2023/07/13 04:38:24;;;;;;;12.10;8.07;;;23.40;92.90;;;24.18;61.09;95240.22;5000067;28;20471;-59
2023/07/13 04:40:51;;;;;;;22.00;9.27;;;23.50;92.70;;;24.26;60.13;95242.69;4987593;28;20580;-60
2023/07/13 04:43:19;;;;;;;19.13;8.97;;;23.60;92.80;;;24.34;60.28;95242.41;4958204;28;21025;-59
2023/07/13 04:45:46;;;;;;;16.00;8.37;;;23.70;92.60;;;24.40;59.60;95242.59;4963068;28;20487;-67
2023/07/13 04:48:15;;;;;;;9.90;8.30;;;23.80;92.30;;;24.45;59.39;95246.28;5005171;28;20496;-61
2023/07/13 04:50:43;;;;;;;22.70;9.67;;;23.80;92.20;;;24.48;59.92;95247.72;4963069;28;20471;-69
2023/07/13 04:53:11;;;;;;;20.47;10.03;;;23.80;92.20;;;24.51;59.26;95255.34;4966817;28;20458;-66
2023/07/13 04:55:38;;;;;;;17.03;9.63;;;23.90;92.20;;;24.55;59.75;95259.22;4965559;28;21046;-67
2023/07/13 04:58:06;;;;;;;14.70;9.70;;;23.90;92.20;;;24.58;59.88;95261.53;4971108;28;20845;-72
2023/07/13 05:00:33;;;;;;;14.57;9.47;;;23.90;92.30;;;24.62;59.32;95262.75;4977242;28;20482;-60
2023/07/13 05:03:00;;;;;;;9.93;7.40;;;24.00;92.40;;;24.65;59.14;95254.22;4983627;28;20512;-69
2023/07/13 05:05:29;;;;;;;19.00;8.60;;;24.00;92.20;;;24.70;59.42;95254.41;4970622;28;20478;-68
2023/07/13 05:07:56;;;;;;;10.80;8.30;;;24.10;92.10;;;24.73;59.07;95255.03;4980622;28;20587;-67
2023/07/13 05:10:24;;;;;;;12.40;9.07;;;24.10;92.00;;;24.75;58.83;95258.31;4971941;28;20478;-67
2023/07/13 05:12:51;;;;;;;18.87;8.57;;;24.10;92.00;;;24.77;58.46;95256.22;4963420;28;20474;-61
2023/07/13 05:15:20;;;;;;;9.63;8.43;;;24.10;91.70;;;24.77;59.06;95261.59;4967448;28;20479;-60
2023/07/13 05:17:48;;;;;;;16.30;9.50;;;24.20;91.70;;;24.80;58.62;95261.16;4967148;28;20459;-66
2023/07/13 05:20:15;;;;;;;13.83;8.10;;;24.20;91.60;;;24.84;58.40;95259.69;4966437;28;20993;-60
2023/07/13 05:22:46;;;;;;;15.47;8.37;;;24.20;91.60;;;24.91;58.46;95254.22;4967588;28;20520;-61
2023/07/13 05:25:13;;;;;;;14.67;9.10;;;24.30;91.70;;;25.01;58.71;95271.53;4962257;28;20463;-59
2023/07/13 05:27:41;;;;;;;13.90;9.13;;;24.30;91.60;;;25.11;58.45;95259.44;4966791;28;20475;-69
2023/07/13 05:30:11;;;;;;;17.20;8.53;;;24.40;91.50;;;25.23;57.77;95261.19;4958945;28;20475;-60
2023/07/13 05:32:39;;;;;;;14.73;8.67;;;24.50;91.40;;;25.36;57.97;95265.66;4961597;28;20564;-60
2023/07/13 05:35:07;;;;;;;17.17;8.80;;;24.60;91.20;;;25.51;57.60;95259.06;4959753;28;20567;-60
2023/07/13 05:37:34;;;;;;;22.40;9.40;;;24.80;91.20;;;25.63;56.70;95265.38;4966442;28;21160;-67
2023/07/13 05:40:03;;;;;;;10.60;8.10;;;24.90;90.60;;;25.79;56.44;95263.13;4959428;28;20486;-67
2023/07/13 05:42:32;;;;;;;11.27;7.90;;;25.00;90.60;;;25.93;56.19;95270.00;4961326;28;21000;-59
2023/07/13 05:44:59;;;;;;;16.43;8.63;;;25.20;90.50;;;26.06;56.19;95269.88;4962194;28;20485;-68
2023/07/13 05:47:26;;;;;;;22.83;8.10;;;25.30;90.20;;;26.18;55.21;95274.47;4961542;28;20451;-60
2023/07/13 05:49:53;;;;;;;19.23;7.97;;;25.40;88.90;;;26.29;54.67;95273.72;4966991;28;20874;-68
2023/07/13 05:52:21;;;;;;;14.30;7.80;;;25.50;88.40;;;26.37;54.52;95267.16;4968925;28;20862;-68
2023/07/13 05:54:48;;;;;;;14.20;8.80;;;25.60;87.70;;;26.48;54.31;95261.81;4968270;28;20867;-67
2023/07/13 05:57:17;;;;;;;10.47;8.80;;;25.70;87.40;;;26.62;53.93;95256.22;4963726;28;20985;-68
2023/07/13 05:59:44;;;;;;;17.03;8.83;;;25.90;87.00;;;26.73;53.45;95252.75;4962353;28;20482;-59
2023/07/13 06:02:11;;;;;;;17.00;8.13;;;26.00;86.30;;;26.85;53.31;95258.19;4965571;28;20489;-60
2023/07/13 06:04:38;;;;;;;14.03;8.30;;;26.10;85.90;;;26.99;53.12;95265.00;4960453;28;20554;-61
2023/07/13 06:07:06;;;;;;;13.57;8.20;;;26.20;86.00;;;27.17;53.17;95269.47;4965951;28;20463;-68
2023/07/13 06:09:33;;;;;;;14.60;8.03;;;26.30;85.60;;;27.35;52.99;95275.84;4966021;28;20602;-61
2023/07/13 06:12:01;;;;;;;14.20;8.03;;;26.50;85.40;;;27.48;52.62;95275.63;4965733;28;20455;-63
2023/07/13 06:14:29;;;;;;;11.40;8.23;;;26.70;84.70;;;27.64;52.26;95275.97;4963224;28;20471;-69
2023/07/13 06:16:57;;;;;;;31.63;19.87;;;26.80;84.40;;;27.80;51.92;95266.28;4965716;28;20536;-61
2023/07/13 06:19:24;;;;;;;19.60;8.30;;;27.00;83.90;;;27.96;51.59;95272.84;4965915;28;20474;-68
2023/07/13 06:21:51;;;;;;;14.20;10.57;;;27.10;83.40;;;28.09;51.26;95278.00;4965721;28;20451;-69
2023/07/13 06:24:18;;;;;;;21.97;9.87;;;27.30;83.00;;;28.25;51.18;95285.34;4965540;28;20459;-61
2023/07/13 06:26:46;;;;;;;13.13;9.30;;;27.40;82.70;;;28.42;50.67;95273.75;4965634;28;20686;-68
2023/07/13 06:29:13;;;;;;;15.47;9.40;;;27.60;82.20;;;28.57;50.93;95265.91;4965601;28;20491;-69
2023/07/13 06:31:42;;;;;;;13.07;8.10;;;27.70;81.60;;;28.71;49.98;95266.47;4964912;28;20968;-69
2023/07/13 06:34:09;;;;;;;25.47;8.93;;;27.90;80.20;;;28.82;49.39;95267.44;4961867;28;20460;-61
2023/07/13 06:36:38;;;;;;;12.93;8.10;;;28.00;79.10;;;28.89;49.14;95261.88;4965401;28;20214;-60
2023/07/13 06:39:05;;;;;;;16.33;8.97;;;28.10;78.40;;;28.96;48.31;95263.34;4965279;28;20979;-67
2023/07/13 06:41:33;;;;;;;16.30;8.10;;;28.20;77.80;;;29.09;48.66;95262.19;4965397;28;20459;-68
2023/07/13 06:44:00;;;;;;;12.73;7.73;;;28.30;77.40;;;29.18;47.93;95265.31;4962240;28;20458;-68
2023/07/13 06:46:29;;;;;;;13.13;8.30;;;28.40;76.60;;;29.26;47.76;95261.41;4964033;28;20214;-69
2023/07/13 06:48:58;;;;;;;9.97;8.37;;;28.40;75.70;;;29.35;46.82;95259.09;4962259;28;20246;-66
2023/07/13 06:51:25;;;;;;;11.83;7.53;;;28.60;75.30;;;29.44;46.24;95260.31;4965381;28;20228;-68
2023/07/13 06:53:54;;;;;;;16.47;8.10;;;28.60;74.70;;;29.51;46.08;95269.06;4965050;28;20238;-69
2023/07/13 06:56:21;;;;;;;10.37;8.07;;;28.70;74.10;;;29.53;45.91;95275.09;4965513;28;20238;-60
2023/07/13 06:58:48;;;;;;;15.77;7.73;;;28.70;73.60;;;29.61;46.73;95266.50;4962431;28;20253;-61
2023/07/13 07:01:15;;;;;;;12.23;7.37;;;28.80;73.70;;;29.75;45.69;95266.16;4964738;28;20227;-60
2023/07/13 07:03:43;;;;;;;17.53;7.77;;;28.90;73.60;;;29.88;46.30;95265.81;4964988;28;20233;-67
2023/07/13 07:06:15;;;;;;;17.83;8.27;;;29.10;74.70;;;30.00;46.32;95261.06;4965198;28;20223;-68
2023/07/13 07:08:42;;;;;;;14.90;8.20;;;29.10;73.70;;;30.15;46.38;95267.78;4965359;28;20324;-66
2023/07/13 07:11:12;;;;;;;9.67;7.73;;;29.30;73.20;;;30.34;45.64;95266.34;4965018;28;20223;-60
2023/07/13 07:13:39;;;;;;;11.93;8.40;;;29.40;73.10;;;30.54;45.85;95256.81;4965219;28;20207;-61
2023/07/13 07:16:08;;;;;;;14.90;9.17;;;29.60;72.60;;;30.74;44.97;95248.84;4964631;28;20619;-61
2023/07/13 07:18:35;;;;;;;13.60;8.33;;;29.90;72.10;;;30.96;44.97;95250.66;4964775;28;20200;-68
2023/07/13 07:21:03;;;;;;;11.07;8.55;;;30.10;71.80;;;31.14;44.38;95254.94;4965335;28;20235;-61
2023/07/13 07:23:31;;;;;;;15.35;8.75;;;30.30;71.10;;;31.34;44.67;95248.81;4964158;28;20222;-60
2023/07/13 07:25:59;;;;;;;18.95;10.40;;;30.50;71.10;;;31.52;43.90;95261.13;4964978;28;20822;-69
2023/07/13 07:28:28;;;;;;;20.73;8.75;;;30.60;70.60;;;31.68;44.51;95256.63;4965054;28;20380;-67
2023/07/13 07:30:56;;;;;;;18.83;8.25;;;30.80;69.90;;;31.85;44.00;95244.75;4965332;28;20704;-60
2023/07/13 07:33:23;;;;;;;13.65;8.45;;;30.90;69.50;;;31.96;43.46;95243.72;4963403;28;20207;-60
2023/07/13 07:35:50;;;;;;;11.90;7.88;;;31.10;69.10;;;32.00;43.09;95239.38;4965015;28;20276;-60
2023/07/13 07:38:18;;;;;;;13.32;8.63;;;31.20;68.10;;;32.09;43.08;95236.97;4965250;28;20635;-67
2023/07/13 07:40:46;;;;;;;20.85;9.55;;;31.20;68.50;;;32.21;42.84;95231.31;4965485;28;20762;-60
2023/07/13 07:43:14;;;;;;;17.70;8.90;;;31.40;68.20;;;32.35;42.63;95232.44;4960229;28;20688;-66
2023/07/13 07:45:41;;;;;;;14.60;8.70;;;31.40;67.80;;;32.49;42.43;95238.19;4963105;28;20236;-67
2023/07/13 07:48:09;;;;;;;19.08;9.07;;;31.60;67.50;;;32.51;42.26;95234.09;4962234;28;20663;-68
2023/07/13 07:50:36;;;;;;;25.15;10.18;;;31.70;66.80;;;32.53;42.16;95223.78;4963916;28;20227;-61
2023/07/13 07:53:06;;;;;;;24.48;9.55;;;31.70;66.50;;;32.59;41.90;95223.78;4963779;28;20199;-59
2023/07/13 07:55:34;;;;;;;12.68;8.63;;;31.70;66.50;;;32.62;41.83;95215.06;4965235;28;20239;-64
2023/07/13 07:58:03;;;;;;;15.10;8.57;;;31.80;65.90;;;32.64;41.63;95221.91;4962115;28;20204;-63
2023/07/13 08:00:31;;;;;;;22.80;9.30;;;31.80;65.50;;;32.67;42.05;95217.81;4964722;28;20228;-59
2023/07/13 08:02:58;;;;;;;14.98;8.27;;;31.80;65.90;;;32.80;41.77;95211.84;4960273;28;20223;-61
2023/07/13 08:05:26;;;;;;;10.93;8.18;;;31.90;65.80;;;32.86;41.53;95204.47;4961428;28;20227;-61
2023/07/13 08:07:53;;;;;;;15.55;9.52;;;32.00;65.40;;;32.91;41.64;95212.66;4962812;28;20203;-61
2023/07/13 08:10:20;;;;;;;16.85;9.05;;;32.10;65.40;;;32.97;41.38;95205.25;4965614;28;20300;-70
2023/07/13 08:12:48;;;;;;;24.08;9.77;;;32.10;65.40;;;33.12;41.34;95210.72;4967555;28;20230;-67
2023/07/13 08:15:20;;;;;;;10.80;8.70;;;32.20;65.40;;;33.34;41.28;95209.63;4964489;28;20712;-60
2023/07/13 08:17:48;;;;;;;23.08;9.15;;;32.40;65.50;;;33.52;40.97;95200.84;4964724;28;20215;-70
2023/07/13 08:20:16;;;;;;;12.23;8.65;;;32.60;64.50;;;33.66;40.83;95197.53;4964349;28;20227;-61
2023/07/13 08:22:43;;;;;;;10.82;7.85;;;32.70;64.50;;;33.75;40.44;95195.91;4965670;28;20261;-59
2023/07/13 08:25:10;;;;;;;17.02;8.15;;;32.90;63.90;;;33.86;40.49;95192.03;4967642;28;20224;-59
2023/07/13 08:27:38;;;;;;;16.17;9.38;;;33.00;63.70;;;34.01;39.98;95195.81;4964541;28;20207;-61
2023/07/13 08:30:07;;;;;;;13.43;8.10;;;33.10;63.40;;;34.19;40.51;95194.31;4967850;28;20239;-59
2023/07/13 08:32:38;;;;;;;22.70;9.05;;;33.30;63.50;;;34.39;39.78;95187.94;4967271;28;20283;-65
2023/07/13 08:35:06;;;;;;;19.05;8.02;;;33.50;63.40;;;34.56;40.76;95182.91;4964555;28;20224;-69
2023/07/13 08:37:33;;;;;;;12.05;8.95;;;33.70;63.60;;;34.77;40.86;95185.53;4968699;28;20592;-69
2023/07/13 08:40:01;;;;;;;10.73;8.25;;;33.80;63.20;;;34.97;39.74;95184.53;4967651;28;20231;-68
2023/07/13 08:42:34;;;;;;;15.82;8.73;;;34.00;62.90;;;35.15;39.46;95185.72;4967711;28;20295;-61
2023/07/13 08:45:10;;;;;;;12.57;8.88;;;34.20;62.50;;;35.33;39.92;95181.47;4967566;28;20296;-68
2023/07/13 08:47:41;;;;;;;12.85;8.40;;;34.40;62.20;;;35.54;39.15;95182.88;4963442;28;20286;-60
2023/07/13 08:50:12;;;;;;;25.65;8.25;;;34.60;61.80;;;35.72;38.68;95180.50;4966819;28;20239;-69
2023/07/13 08:52:41;;;;;;;13.38;8.00;;;34.80;61.30;;;35.88;39.23;95183.88;4963900;28;20661;-68
2023/07/13 08:55:14;;;;;;;24.20;7.78;;;35.00;61.20;;;36.07;38.64;95198.41;4967734;28;20231;-69
2023/07/13 08:57:41;;;;;;;13.15;8.65;;;35.10;60.60;;;36.24;38.17;95200.66;4965186;28;20214;-61
2023/07/13 09:00:12;;;;;;;16.65;9.82;;;35.30;60.40;;;36.39;37.51;95198.84;4967656;28;20281;-61
2023/07/13 09:02:45;;;;;;;15.13;9.40;;;35.50;59.20;;;36.48;37.70;95212.69;4959734;28;20208;-61
2023/07/13 09:05:15;;;;;;;11.27;8.23;;;35.60;59.20;;;36.57;37.24;95210.91;4965270;28;20305;-68
2023/07/13 09:07:56;;;;;;;13.35;8.23;;;35.70;58.60;;;36.65;36.58;95215.72;4967736;28;20256;-70
2023/07/13 09:10:28;;;;;;;19.23;8.82;;;35.80;58.10;;;36.73;36.32;95217.81;4966787;28;20243;-60
2023/07/13 09:13:05;;;;;;;16.92;8.85;;;35.80;57.80;;;36.81;36.33;95208.13;4968349;28;20219;-70
2023/07/13 09:15:35;;;;;;;16.00;8.60;;;35.90;57.40;;;36.88;37.06;95207.72;4968362;28;20608;-70
2023/07/13 09:18:11;;;;;;;18.77;8.15;;;36.00;57.50;;;36.95;35.84;95202.66;4960370;28;20245;-70
2023/07/13 09:20:41;;;;;;;21.42;7.35;;;36.10;56.90;;;37.00;36.38;95205.31;4967270;28;20612;-61
2023/07/13 09:23:14;;;;;;;13.63;8.07;;;36.10;57.00;;;37.08;35.95;95204.63;4963258;28;20211;-61
2023/07/13 09:25:41;;;;;;;23.55;8.10;;;36.20;56.80;;;37.18;36.22;95205.56;4966875;28;20230;-62
2023/07/13 09:28:14;;;;;;;14.80;7.63;;;36.20;56.40;;;37.27;36.08;95203.78;4966923;28;20257;-62
2023/07/13 09:30:46;;;;;;;12.20;7.30;;;36.40;56.50;;;37.36;36.27;95214.91;4967469;28;20239;-61
2023/07/13 09:33:15;;;;;;;21.17;9.10;;;36.50;56.70;;;37.42;36.29;95205.44;4964663;28;20211;-68
2023/07/13 09:35:42;;;;;;;18.50;7.53;;;36.50;56.40;;;37.49;36.11;95203.09;4966579;28;20238;-69
2023/07/13 09:38:14;;;;;;;16.85;7.20;;;36.50;56.20;;;37.56;35.79;95197.22;4967127;28;20744;-70
2023/07/13 09:40:51;;;;;;;12.38;7.10;;;36.70;56.10;;;37.62;35.05;95199.56;4967638;28;20228;-62
2023/07/13 09:43:18;;;;;;;14.82;7.85;;;36.70;55.20;;;37.67;35.66;95193.16;4967585;28;20204;-70
2023/07/13 09:45:47;;;;;;;16.23;8.43;;;36.70;55.20;;;37.68;35.47;95187.38;4963822;28;20223;-62
2023/07/13 09:48:17;;;;;;;14.32;8.10;;;36.80;55.10;;;37.71;35.52;95180.50;4963771;28;20288;-60
2023/07/13 09:50:44;;;;;;;24.95;8.55;;;36.80;55.10;;;37.76;35.29;95182.31;4966209;28;20231;-68
2023/07/13 09:53:15;;;;;;;14.13;7.97;;;36.80;55.00;;;37.80;35.25;95170.44;4966810;28;20322;-69
2023/07/13 09:55:44;;;;;;;17.88;6.40;;;36.80;55.10;;;37.85;34.46;95166.75;4966874;28;20235;-62
2023/07/13 09:58:14;;;;;;;9.50;5.20;;;36.90;53.60;;;37.87;33.43;95163.72;4967713;28;20207;-69
2023/07/13 10:00:43;;;;;;;19.85;5.30;;;36.90;52.20;;;37.83;32.25;95160.75;4967421;28;20318;-62
2023/07/13 10:03:23;;;;;;;9.52;5.40;;;36.90;50.70;;;37.75;31.38;95165.03;4964159;28;20615;-60
2023/07/13 10:05:51;;;;;;;12.43;6.43;;;36.90;49.50;;;37.58;31.59;95159.31;4966710;28;20227;-71
2023/07/13 10:08:25;;;;;;;8.10;5.38;;;36.80;49.40;;;37.49;31.73;95157.28;4966642;28;20607;-62
2023/07/13 10:10:59;;;;;;;7.18;4.85;;;36.70;49.30;;;37.45;30.93;95156.25;4964117;28;20235;-71
2023/07/13 10:13:36;;;;;;;18.77;6.13;;;36.60;49.30;;;37.36;30.34;95160.03;4966752;28;20273;-61
2023/07/13 10:16:05;;;;;;;12.38;4.97;;;36.50;48.50;;;37.30;31.04;95156.53;4965818;28;20715;-62
2023/07/13 10:18:41;;;;;;;15.55;5.32;;;36.40;48.60;;;37.32;30.67;95162.53;4966181;28;20669;-60
2023/07/13 10:21:18;;;;;;;13.32;4.88;;;36.40;49.20;;;37.36;30.33;95158.06;4965687;28;20792;-69